createdAt,value
2019-04-26T00:01:18.296Z,72.67
2019-04-26T00:03:48.785Z,73.09
2019-04-26T00:06:18.754Z,73.48
2019-04-26T00:08:53.538Z,73.19
2019-04-26T00:11:34.954Z,73.16
2019-04-26T00:14:23.252Z,73.44
2019-04-26T00:16:56.481Z,73.87
2019-04-26T00:19:26.351Z,73.62
2019-04-26T00:21:56.025Z,73.55
2019-04-26T00:24:28.486Z,73.71
2019-04-26T00:26:57.035Z,74.00
2019-04-26T00:29:26.533Z,74.39
2019-04-26T00:31:55.935Z,74.38
2019-04-26T00:34:25.366Z,74.05
2019-04-26T00:36:54.870Z,74.52
2019-04-26T00:39:25.052Z,74.64
2019-04-26T00:41:54.846Z,74.35
2019-04-26T00:44:24.259Z,73.96
2019-04-26T00:46:56.751Z,73.81
2019-04-26T00:49:28.335Z,73.87
2019-04-26T00:51:57.961Z,73.90
2019-04-26T00:54:28.553Z,74.18
2019-04-26T00:56:59.028Z,74.46
2019-04-26T00:59:29.316Z,74.57
2019-04-26T01:02:05.273Z,74.77
2019-04-26T01:04:34.680Z,74.99
2019-04-26T01:07:04.670Z,74.92
2019-04-26T01:09:34.531Z,74.84
2019-04-26T01:12:04.104Z,74.68
2019-04-26T01:14:33.812Z,74.62
2019-04-26T01:17:03.664Z,74.71
2019-04-26T01:19:34.045Z,74.92
2019-04-26T01:22:07.372Z,74.85
2019-04-26T01:24:38.813Z,74.66
2019-04-26T01:27:09.935Z,74.84
2019-04-26T01:29:40.746Z,75.12
2019-04-26T01:32:12.935Z,75.33
2019-04-26T01:34:44.156Z,75.46
2019-04-26T01:37:14.227Z,75.78
2019-04-26T01:39:49.411Z,75.87
2019-04-26T01:42:36.763Z,75.42
2019-04-26T01:45:12.529Z,75.47
2019-04-26T01:47:41.956Z,76.05
2019-04-26T01:50:12.473Z,76.22
2019-04-26T01:52:44.594Z,76.49
2019-04-26T01:55:14.562Z,75.84
2019-04-26T01:57:44.551Z,75.31
2019-04-26T02:00:28.145Z,75.61
2019-04-26T02:03:01.213Z,76.05
2019-04-26T02:05:31.986Z,76.22
2019-04-26T02:08:01.518Z,76.43
2019-04-26T02:10:31.429Z,76.68
2019-04-26T02:13:01.623Z,76.97
2019-04-26T02:15:33.571Z,76.97
2019-04-26T02:18:04.151Z,77.30
2019-04-26T02:21:08.016Z,77.57
2019-04-26T02:23:44.403Z,77.90
2019-04-26T02:26:33.327Z,77.46
2019-04-26T02:29:06.058Z,77.95
2019-04-26T02:31:37.788Z,78.62
2019-04-26T02:34:08.381Z,78.93
2019-04-26T02:36:56.295Z,79.14
2019-04-26T02:39:22.401Z,79.08
2019-04-26T02:41:55.114Z,79.33
2019-04-26T02:44:31.354Z,79.49
2019-04-26T02:47:37.275Z,79.27
2019-04-26T02:50:11.625Z,78.81
2019-04-26T02:53:00.365Z,78.18
2019-04-26T02:55:50.633Z,77.80
2019-04-26T02:58:23.115Z,77.43
2019-04-26T03:00:53.918Z,77.14
2019-04-26T03:03:25.319Z,76.99
2019-04-26T03:05:56.449Z,76.98
2019-04-26T03:08:27.950Z,77.13
2019-04-26T03:11:10.999Z,77.41
2019-04-26T03:13:54.569Z,77.96
2019-04-26T03:16:35.352Z,78.13
2019-04-26T03:19:37.767Z,78.04
2019-04-26T03:22:15.093Z,78.05
2019-04-26T03:25:00.214Z,77.98
2019-04-26T03:27:48.762Z,78.28
2019-04-26T03:30:33.345Z,78.27
2019-04-26T03:33:22.969Z,77.87
2019-04-26T03:36:15.077Z,78.28
2019-04-26T03:38:55.867Z,77.96
2019-04-26T03:41:36.609Z,78.20
2019-04-26T03:44:13.878Z,78.10
2019-04-26T03:46:50.772Z,78.14
2019-04-26T03:49:49.514Z,78.10
2019-04-26T03:52:44.115Z,78.75
2019-04-26T03:56:00.535Z,79.01
2019-04-26T03:58:59.883Z,79.22
2019-04-26T04:01:35.412Z,79.38
2019-04-26T04:04:24.661Z,79.31
2019-04-26T04:07:04.322Z,79.11
2019-04-26T04:09:30.345Z,79.16
2019-04-26T04:12:16.592Z,78.95
2019-04-26T04:14:59.673Z,78.58
2019-04-26T04:17:48.276Z,78.33
2019-04-26T04:21:08.448Z,78.01
2019-04-26T04:24:11.672Z,77.54
2019-04-26T04:27:09.137Z,77.20
2019-04-26T04:29:55.502Z,76.86
2019-04-26T04:32:34.838Z,75.93
2019-04-26T04:35:08.350Z,75.20
2019-04-26T04:38:04.248Z,75.29
2019-04-26T04:40:47.301Z,75.36
2019-04-26T04:43:33.948Z,75.36
2019-04-26T04:46:37.480Z,75.12
2019-04-26T04:49:44.126Z,75.61
2019-04-26T04:52:28.536Z,75.17
2019-04-26T04:55:09.724Z,74.79
2019-04-26T04:57:52.478Z,75.20
2019-04-26T05:01:09.647Z,75.06
2019-04-26T05:04:22.717Z,74.43
2019-04-26T05:07:25.067Z,74.37
2019-04-26T05:10:03.652Z,74.75
2019-04-26T05:12:39.558Z,74.90
2019-04-26T05:15:36.259Z,74.91
2019-04-26T05:19:03.227Z,75.15
2019-04-26T05:21:55.089Z,75.16
2019-04-26T05:25:09.488Z,74.77
2019-04-26T05:28:00.851Z,74.42
2019-04-26T05:31:10.610Z,73.75
2019-04-26T05:34:20.829Z,74.06
2019-04-26T05:37:37.176Z,73.92
2019-04-26T05:40:36.968Z,73.70
2019-04-26T05:43:41.400Z,73.63
2019-04-26T05:46:50.213Z,73.51
2019-04-26T05:50:10.150Z,73.59
2019-04-26T05:54:05.497Z,73.22
2019-04-26T05:56:48.543Z,72.81
2019-04-26T05:59:26.426Z,72.21
2019-04-26T06:02:41.079Z,72.11
2019-04-26T06:05:52.307Z,71.95
2019-04-26T06:09:23.721Z,70.98
2019-04-26T06:12:04.012Z,69.94
2019-04-26T06:15:29.511Z,68.38
2019-04-26T06:18:43.212Z,66.96
2019-04-26T06:21:36.320Z,66.18
2019-04-26T06:25:09.499Z,65.55
2019-04-26T06:28:03.971Z,64.08
2019-04-26T06:30:59.500Z,61.98
2019-04-26T06:33:41.514Z,62.71
2019-04-26T06:36:18.471Z,62.53
2019-04-26T06:39:32.970Z,62.46
2019-04-26T06:42:19.029Z,61.33
2019-04-26T06:45:50.478Z,62.28
2019-04-26T06:48:42.424Z,62.32
2019-04-26T06:51:24.522Z,61.86
2019-04-26T06:54:34.331Z,61.27
2019-04-26T06:57:40.820Z,61.24
2019-04-26T07:00:19.215Z,60.13
2019-04-26T07:03:24.539Z,60.13
2019-04-26T07:06:00.875Z,59.55
2019-04-26T07:08:57.366Z,58.47
2019-04-26T07:12:30.198Z,58.38
2019-04-26T07:15:29.769Z,57.79
2019-04-26T07:18:13.899Z,57.56
2019-04-26T07:21:00.731Z,56.86
2019-04-26T07:24:43.910Z,55.80
2019-04-26T07:27:42.995Z,54.67
2019-04-26T07:30:40.859Z,53.15
2019-04-26T07:33:33.735Z,53.79
2019-04-26T07:36:29.503Z,52.46
2019-04-26T07:39:33.878Z,53.46
2019-04-26T07:42:30.189Z,53.25
2019-04-26T07:45:20.233Z,51.87
2019-04-26T07:48:42.388Z,51.28
2019-04-26T07:52:08.505Z,51.63
2019-04-26T07:55:13.371Z,51.78
2019-04-26T07:58:09.069Z,51.23
2019-04-26T08:00:47.487Z,51.69
2019-04-26T08:03:37.987Z,51.41
2019-04-26T08:06:22.277Z,50.88
2019-04-26T08:09:06.142Z,50.67
2019-04-26T08:11:50.002Z,50.58
2019-04-26T08:14:25.415Z,49.97
2019-04-26T08:17:24.944Z,49.49
2019-04-26T08:20:16.057Z,49.59
2019-04-26T08:22:48.684Z,49.21
2019-04-26T08:25:20.357Z,49.07
2019-04-26T08:27:53.047Z,47.85
2019-04-26T08:30:24.023Z,48.00
2019-04-26T08:32:57.724Z,47.19
2019-04-26T08:35:30.364Z,44.93
2019-04-26T08:38:16.395Z,44.31
2019-04-26T08:40:41.267Z,42.27
2019-04-26T08:43:31.787Z,40.63
2019-04-26T08:46:22.406Z,37.12
2019-04-26T08:49:15.165Z,37.12
2019-04-26T08:51:47.746Z,33.43
2019-04-26T08:54:26.739Z,33.11
2019-04-26T08:57:02.812Z,30.99
2019-04-26T08:59:37.102Z,28.25
2019-04-26T09:02:37.951Z,27.53
2019-04-26T09:05:37.824Z,25.07
2019-04-26T09:08:10.263Z,23.00
2019-04-26T09:10:43.208Z,23.92
2019-04-26T09:13:16.824Z,23.01
2019-04-26T09:16:02.679Z,21.62
2019-04-26T09:18:42.483Z,20.39
2019-04-26T09:21:03.446Z,19.55
2019-04-26T09:23:51.946Z,19.24
2019-04-26T09:26:46.624Z,18.88
2019-04-26T09:29:30.396Z,18.91
2019-04-26T09:32:09.324Z,18.09
2019-04-26T09:34:41.298Z,17.46
2019-04-26T09:37:10.748Z,17.02
2019-04-26T09:39:41.608Z,17.89
2019-04-26T09:42:20.797Z,17.77
2019-04-26T09:44:56.961Z,17.41
2019-04-26T09:47:34.945Z,17.44
2019-04-26T09:50:22.453Z,16.74
2019-04-26T09:52:52.465Z,16.67
2019-04-26T09:55:34.538Z,15.98
2019-04-26T09:57:53.500Z,17.20
2019-04-26T10:00:28.032Z,15.82
2019-04-26T10:02:57.824Z,15.90
2019-04-26T10:05:27.459Z,15.61
2019-04-26T10:07:56.933Z,16.86
2019-04-26T10:10:31.099Z,17.53
2019-04-26T10:13:23.100Z,18.39
2019-04-26T10:16:10.410Z,17.67
2019-04-26T10:18:41.870Z,16.24
2019-04-26T10:21:11.301Z,16.63
2019-04-26T10:23:40.708Z,16.54
2019-04-26T10:26:10.230Z,15.34
2019-04-26T10:28:39.775Z,15.74
2019-04-26T10:31:09.226Z,15.70
2019-04-26T10:33:38.616Z,15.50
2019-04-26T10:36:08.069Z,15.43
2019-04-26T10:38:37.569Z,16.16
2019-04-26T10:41:07.230Z,15.37
2019-04-26T10:43:36.627Z,14.83
2019-04-26T10:46:07.770Z,14.35
2019-04-26T10:48:37.270Z,15.29
2019-04-26T10:51:07.272Z,16.08
2019-04-26T10:54:05.802Z,14.91
2019-04-26T10:57:00.942Z,15.77
2019-04-26T10:59:40.057Z,15.24
2019-04-26T11:02:12.746Z,16.29
2019-04-26T11:04:42.895Z,16.68
2019-04-26T11:07:12.508Z,16.24
2019-04-26T11:09:41.996Z,15.57
2019-04-26T11:12:14.579Z,14.87
2019-04-26T11:14:44.086Z,15.56
2019-04-26T11:17:16.036Z,15.67
2019-04-26T11:19:44.913Z,15.56
2019-04-26T11:22:14.383Z,15.54
2019-04-26T11:24:43.878Z,16.23
2019-04-26T11:27:13.325Z,16.56
2019-04-26T11:29:53.243Z,15.05
2019-04-26T11:32:13.915Z,14.40
2019-04-26T11:34:43.580Z,15.25
2019-04-26T11:37:13.442Z,14.70
2019-04-26T11:39:44.363Z,15.51
2019-04-26T11:42:13.809Z,16.04
2019-04-26T11:44:44.728Z,15.32
2019-04-26T11:47:14.494Z,15.67
2019-04-26T11:49:44.117Z,16.33
2019-04-26T11:52:13.824Z,15.94
2019-04-26T11:54:43.220Z,15.81
2019-04-26T11:57:13.648Z,16.35
2019-04-26T11:59:43.251Z,15.42
2019-04-26T12:02:16.181Z,15.93
2019-04-26T12:05:15.209Z,16.70
2019-04-26T12:07:49.775Z,16.58
2019-04-26T12:10:19.293Z,16.42
2019-04-26T12:12:51.889Z,17.41
2019-04-26T12:15:30.032Z,17.90
2019-04-26T12:17:58.294Z,17.59
2019-04-26T12:20:26.399Z,17.59
2019-04-26T12:22:53.455Z,16.98
2019-04-26T12:25:22.847Z,16.29
2019-04-26T12:27:53.549Z,17.21
2019-04-26T12:30:26.556Z,17.37
2019-04-26T12:32:54.698Z,16.55
2019-04-26T12:35:24.099Z,16.44
2019-04-26T12:37:54.780Z,17.12
2019-04-26T12:40:24.907Z,15.73
2019-04-26T12:42:54.350Z,16.11
2019-04-26T12:45:57.866Z,16.27
2019-04-26T12:48:27.313Z,16.79
2019-04-26T12:50:56.819Z,18.83
2019-04-26T12:53:26.755Z,20.01
2019-04-26T12:55:58.423Z,21.39
2019-04-26T12:58:28.101Z,23.00
2019-04-26T13:00:57.543Z,24.00
2019-04-26T13:03:29.306Z,25.00
2019-04-26T13:05:59.118Z,24.63
2019-04-26T13:08:28.668Z,25.11
2019-04-26T13:11:29.370Z,25.71
2019-04-26T13:14:03.027Z,25.13
2019-04-26T13:17:01.201Z,24.88
2019-04-26T13:19:28.641Z,24.83
2019-04-26T13:21:58.089Z,24.11
2019-04-26T13:24:27.534Z,23.15
2019-04-26T13:26:57.030Z,23.22
2019-04-26T13:29:27.227Z,21.97
2019-04-26T13:31:57.647Z,21.09
2019-04-26T13:34:27.138Z,21.42
2019-04-26T13:36:59.138Z,21.87
2019-04-26T13:39:27.795Z,21.64
2019-04-26T13:42:04.555Z,21.87
2019-04-26T13:44:45.976Z,22.18
2019-04-26T13:47:34.290Z,22.28
2019-04-26T13:50:10.748Z,21.35
2019-04-26T13:52:40.253Z,22.53
2019-04-26T13:55:09.797Z,22.85
2019-04-26T13:57:40.196Z,23.59
2019-04-26T14:00:12.368Z,24.72
2019-04-26T14:02:41.909Z,25.22
2019-04-26T14:05:15.311Z,26.46
2019-04-26T14:07:42.817Z,27.68
2019-04-26T14:10:12.464Z,27.66
2019-04-26T14:12:41.959Z,27.66
2019-04-26T14:15:11.504Z,27.55
2019-04-26T14:17:40.886Z,28.18
2019-04-26T14:20:11.598Z,27.88
2019-04-26T14:22:47.690Z,28.66
2019-04-26T14:25:19.935Z,28.80
2019-04-26T14:27:51.796Z,28.90
2019-04-26T14:30:21.665Z,28.90
2019-04-26T14:32:53.150Z,29.50
2019-04-26T14:35:22.744Z,30.38
2019-04-26T14:37:52.299Z,31.02
2019-04-26T14:40:22.280Z,31.00
2019-04-26T14:43:05.629Z,31.32
2019-04-26T14:45:24.237Z,31.37
2019-04-26T14:47:53.827Z,31.68
2019-04-26T14:50:23.478Z,31.58
2019-04-26T14:52:53.034Z,31.75
2019-04-26T14:55:22.905Z,31.72
2019-04-26T14:57:54.030Z,31.99
2019-04-26T15:00:29.137Z,32.57
2019-04-26T15:03:17.314Z,32.88
2019-04-26T15:05:57.794Z,31.19
2019-04-26T15:08:27.236Z,31.88
2019-04-26T15:11:00.998Z,32.06
2019-04-26T15:13:28.291Z,32.39
2019-04-26T15:15:57.739Z,33.93
2019-04-26T15:18:29.346Z,33.87
2019-04-26T15:20:58.694Z,33.74
2019-04-26T15:23:28.155Z,34.15
2019-04-26T15:25:58.629Z,34.24
2019-04-26T15:28:28.392Z,34.72
2019-04-26T15:30:57.861Z,35.57
2019-04-26T15:33:27.394Z,36.35
2019-04-26T15:35:56.952Z,36.38
2019-04-26T15:38:26.448Z,36.44
2019-04-26T15:41:26.939Z,36.60
2019-04-26T15:44:15.318Z,37.08
2019-04-26T15:46:55.731Z,37.55
2019-04-26T15:49:53.455Z,38.25
2019-04-26T15:52:22.914Z,38.20
2019-04-26T15:54:58.138Z,38.90
2019-04-26T15:57:24.489Z,39.17
2019-04-26T15:59:58.038Z,39.54
2019-04-26T16:02:26.469Z,39.96
2019-04-26T16:04:56.168Z,40.16
2019-04-26T16:07:28.740Z,40.32
2019-04-26T16:09:57.558Z,40.27
2019-04-26T16:12:27.316Z,40.58
2019-04-26T16:14:56.837Z,40.88
2019-04-26T16:17:26.585Z,41.23
2019-04-26T16:20:00.035Z,41.41
2019-04-26T16:22:30.072Z,41.44
2019-04-26T16:25:03.973Z,41.35
2019-04-26T16:27:32.417Z,41.35
2019-04-26T16:30:09.725Z,41.89
2019-04-26T16:33:13.477Z,42.02
2019-04-26T16:35:43.443Z,42.24
2019-04-26T16:38:34.946Z,42.71
2019-04-26T16:41:05.130Z,43.02
2019-04-26T16:43:40.008Z,44.09
2019-04-26T16:46:06.400Z,44.84
2019-04-26T16:48:36.171Z,45.07
2019-04-26T16:51:08.464Z,45.88
2019-04-26T16:53:52.092Z,46.01
2019-04-26T16:56:08.117Z,46.18
2019-04-26T16:58:42.234Z,46.90
2019-04-26T17:01:10.313Z,47.11
2019-04-26T17:03:45.228Z,46.66
2019-04-26T17:06:14.191Z,47.23
2019-04-26T17:08:49.110Z,46.98
2019-04-26T17:11:14.075Z,46.89
2019-04-26T17:13:51.218Z,47.16
2019-04-26T17:16:14.816Z,47.40
2019-04-26T17:18:44.314Z,47.87
2019-04-26T17:21:17.615Z,47.98
2019-04-26T17:24:12.191Z,48.06
2019-04-26T17:26:45.785Z,48.33
2019-04-26T17:29:15.321Z,49.03
2019-04-26T17:31:45.042Z,48.93
2019-04-26T17:34:14.491Z,49.35
2019-04-26T17:36:46.324Z,49.37
2019-04-26T17:39:17.189Z,49.61
2019-04-26T17:41:50.661Z,50.04
2019-04-26T17:44:20.589Z,50.15
2019-04-26T17:46:56.235Z,50.96
2019-04-26T17:49:21.460Z,50.67
2019-04-26T17:51:57.713Z,51.29
2019-04-26T17:54:41.632Z,51.92
2019-04-26T17:56:53.716Z,51.57
2019-04-26T17:59:33.349Z,52.07
2019-04-26T18:02:00.879Z,52.08
2019-04-26T18:04:33.735Z,52.80
2019-04-26T18:07:03.898Z,53.22
2019-04-26T18:09:42.949Z,53.38
2019-04-26T18:12:03.336Z,53.71
2019-04-26T18:14:32.093Z,53.97
2019-04-26T18:17:08.026Z,54.38
2019-04-26T18:19:54.373Z,54.14
2019-04-26T18:22:40.065Z,54.17
2019-04-26T18:25:12.434Z,54.22
2019-04-26T18:27:43.398Z,55.31
2019-04-26T18:30:14.282Z,55.66
2019-04-26T18:32:47.742Z,55.22
2019-04-26T18:35:16.940Z,55.89
2019-04-26T18:37:46.917Z,55.43
2019-04-26T18:40:16.511Z,55.56
2019-04-26T18:42:45.916Z,56.42
2019-04-26T18:45:21.258Z,56.11
2019-04-26T18:47:46.777Z,56.74
2019-04-26T18:50:16.759Z,57.18
2019-04-26T18:53:19.571Z,57.72
2019-04-26T18:55:49.412Z,57.31
2019-04-26T18:58:19.158Z,57.35
2019-04-26T19:00:48.720Z,57.44
2019-04-26T19:03:19.142Z,57.09
2019-04-26T19:05:48.798Z,56.89
2019-04-26T19:08:22.373Z,56.95
2019-04-26T19:10:59.226Z,57.05
2019-04-26T19:13:36.612Z,57.80
2019-04-26T19:16:18.179Z,57.85
2019-04-26T19:18:57.600Z,58.71
2019-04-26T19:21:40.265Z,58.64
2019-04-26T19:24:17.132Z,58.97
2019-04-26T19:26:44.201Z,59.66
2019-04-26T19:29:18.213Z,59.92
2019-04-26T19:31:44.063Z,59.31
2019-04-26T19:34:13.667Z,59.15
2019-04-26T19:36:43.148Z,59.76
2019-04-26T19:39:22.438Z,59.78
2019-04-26T19:41:52.055Z,59.84
2019-04-26T19:44:22.148Z,59.73
2019-04-26T19:47:06.479Z,60.35
2019-04-26T19:49:53.694Z,61.33
2019-04-26T19:52:45.150Z,61.79
2019-04-26T19:55:54.854Z,62.40
2019-04-26T19:58:25.392Z,61.80
2019-04-26T20:00:55.306Z,62.25
2019-04-26T20:03:28.118Z,61.48
2019-04-26T20:05:57.530Z,61.42
2019-04-26T20:08:29.320Z,61.53
2019-04-26T20:10:58.284Z,61.80
2019-04-26T20:13:27.711Z,61.91
2019-04-26T20:16:01.791Z,62.30
2019-04-26T20:18:38.991Z,61.89
2019-04-26T20:21:12.573Z,61.98
2019-04-26T20:23:42.558Z,62.14
2019-04-26T20:26:09.397Z,61.96
2019-04-26T20:28:38.900Z,62.32
2019-04-26T20:31:37.555Z,62.95
2019-04-26T20:34:10.908Z,63.45
2019-04-26T20:36:41.642Z,64.22
2019-04-26T20:39:12.441Z,64.06
2019-04-26T20:41:41.614Z,64.11
2019-04-26T20:44:13.440Z,64.40
2019-04-26T20:46:43.201Z,64.59
2019-04-26T20:49:12.720Z,64.83
2019-04-26T20:51:46.079Z,65.03
2019-04-26T20:54:16.338Z,65.19
2019-04-26T20:56:46.253Z,64.83
2019-04-26T20:59:16.631Z,64.86
2019-04-26T21:02:00.447Z,64.89
2019-04-26T21:04:34.961Z,65.06
2019-04-26T21:06:49.647Z,65.43
2019-04-26T21:09:19.608Z,64.98
2019-04-26T21:11:49.391Z,64.63
2019-04-26T21:14:18.986Z,64.65
2019-04-26T21:16:49.498Z,64.98
2019-04-26T21:19:20.299Z,65.43
2019-04-26T21:21:52.185Z,65.80
2019-04-26T21:24:23.643Z,66.15
2019-04-26T21:27:25.920Z,66.48
2019-04-26T21:30:08.507Z,66.26
2019-04-26T21:32:59.160Z,66.36
2019-04-26T21:35:33.698Z,66.60
2019-04-26T21:38:07.244Z,67.06
2019-04-26T21:40:45.331Z,67.16
2019-04-26T21:43:14.840Z,67.44
2019-04-26T21:45:44.423Z,67.58
2019-04-26T21:48:14.258Z,67.93
2019-04-26T21:50:44.459Z,68.46
2019-04-26T21:53:14.020Z,68.82
2019-04-26T21:55:43.559Z,68.60
2019-04-26T21:58:14.172Z,68.55
2019-04-26T22:01:03.059Z,68.22
2019-04-26T22:03:32.958Z,68.54
2019-04-26T22:06:04.048Z,68.70
2019-04-26T22:08:36.047Z,69.08
2019-04-26T22:11:05.671Z,69.60
2019-04-26T22:13:44.975Z,69.93
2019-04-26T22:16:34.283Z,70.19
2019-04-26T22:19:12.710Z,70.43
2019-04-26T22:22:05.804Z,70.67
2019-04-26T22:24:34.894Z,70.83
2019-04-26T22:27:04.556Z,70.70
2019-04-26T22:29:34.059Z,70.62
2019-04-26T22:32:03.806Z,70.72
2019-04-26T22:34:33.295Z,70.66
2019-04-26T22:37:11.522Z,70.62
2019-04-26T22:39:39.862Z,70.57
2019-04-26T22:42:05.958Z,70.73
2019-04-26T22:44:43.703Z,70.72
2019-04-26T22:47:25.220Z,71.04
2019-04-26T22:49:54.759Z,71.25
2019-04-26T22:52:24.559Z,71.47
2019-04-26T22:54:54.186Z,71.66
2019-04-26T22:57:23.810Z,71.82
2019-04-26T22:59:53.640Z,71.93
2019-04-26T23:02:27.572Z,72.01
2019-04-26T23:04:56.104Z,71.72
2019-04-26T23:07:26.550Z,71.79
2019-04-26T23:09:55.960Z,72.29
2019-04-26T23:12:47.176Z,72.85
2019-04-26T23:15:47.892Z,73.17
2019-04-26T23:18:51.476Z,73.43
2019-04-26T23:21:25.056Z,73.41
2019-04-26T23:23:54.636Z,73.52
2019-04-26T23:26:24.168Z,73.46
2019-04-26T23:28:53.683Z,73.31
2019-04-26T23:31:23.743Z,73.25
2019-04-26T23:33:53.879Z,73.45
2019-04-26T23:36:24.168Z,73.63
2019-04-26T23:38:53.821Z,73.52
2019-04-26T23:41:23.693Z,73.59
2019-04-26T23:43:56.825Z,73.53
2019-04-26T23:46:25.935Z,73.71
2019-04-26T23:48:55.647Z,73.96
2019-04-26T23:51:26.156Z,74.03
2019-04-26T23:53:58.153Z,74.05
2019-04-26T23:56:27.617Z,74.19
2019-04-26T23:58:57.073Z,74.10
